Terminal Aerodrome Forecast
Issued by NWS Wilmington, OH

Home | Current Version | Previous Version | Text Only | Print | Product List | Glossary On
Versions: 1 2 3 4 5 6 7 8 9 10 11 12 13 14 15 16 17 18 19 20 21 22 23 24 25 26 27 28 29 30
000
FTUS41 KILN 311700 RRA
TAFILN
TAF
KILN 311745Z 3118/0118 22008KT P6SM OVC200
     FM010000 22004KT P6SM OVC100
     FM010300 23004KT P6SM -FZRA OVC040
     FM010500 23004KT 5SM -FZRA BR OVC025
      TEMPO 0105/0109 OVC015
     FM011000 14005KT 5SM BR BKN025 OVC080
     FM011400 13007KT P6SM OVC080=

USA.gov is the U.S. government's official web portal to all federal, state and local government web resources and services.